Time;durP1;ratioP1;P1;durP2;ratioP2;P2;SDS_P1;SDS_P2;PMS_P1;PMS_P2;Temp;Humidity;BMP_temperature;BMP_pressure;BME280_temperature;BME280_humidity;BME280_pressure;Samples;Min_cycle;Max_cycle;Signal;HPM_P1;HPM_P2
2023/12/25 00:01:06;;;;;;;0.90;0.50;;;;;;;;;;5072578;28;20541;-62
2023/12/25 00:03:33;;;;;;;2.50;0.80;;;;;;;;;;5072807;28;20449;-62
2023/12/25 00:06:00;;;;;;;1.00;0.80;;;;;;;;;;5072856;28;20685;-62
2023/12/25 00:08:28;;;;;;;1.17;0.70;;;;;;;;;;5072571;28;20432;-62
2023/12/25 00:10:55;;;;;;;1.87;0.70;;;;;;;;;;5072512;28;20534;-61
2023/12/25 00:13:22;;;;;;;3.73;0.70;;;;;;;;;;5075380;28;20883;-62
2023/12/25 00:15:49;;;;;;;2.73;0.70;;;;;;;;;;5076573;28;20863;-62
2023/12/25 00:18:17;;;;;;;1.00;0.60;;;;;;;;;;5076418;28;20533;-61
2023/12/25 00:20:44;;;;;;;1.27;0.53;;;;;;;;;;5076592;28;20457;-62
2023/12/25 00:23:11;;;;;;;3.50;0.70;;;;;;;;;;5076238;28;20485;-62
2023/12/25 00:25:38;;;;;;;1.50;0.90;;;;;;;;;;5076180;28;20447;-61
2023/12/25 00:28:05;;;;;;;1.73;0.53;;;;;;;;;;5076006;28;21040;-61
2023/12/25 00:30:32;;;;;;;1.33;0.70;;;;;;;;;;5076198;28;20561;-61
2023/12/25 00:32:59;;;;;;;2.60;0.70;;;;;;;;;;5076137;28;20443;-61
2023/12/25 00:35:27;;;;;;;0.77;0.67;;;;;;;;;;5076089;28;20530;-61
2023/12/25 00:37:54;;;;;;;1.47;1.20;;;;;;;;;;5076214;28;20443;-61
2023/12/25 00:40:21;;;;;;;1.57;0.70;;;;;;;;;;5075903;28;20534;-62
2023/12/25 00:42:48;;;;;;;3.00;0.80;;;;;;;;;;5076133;28;20439;-62
2023/12/25 00:45:15;;;;;;;3.17;1.00;;;;;;;;;;5076028;28;20522;-61
2023/12/25 00:47:42;;;;;;;2.10;1.27;;;;;;;;;;5075834;28;20470;-61
2023/12/25 00:50:09;;;;;;;1.00;0.63;;;;;;;;;;5075687;28;20561;-62
2023/12/25 00:52:38;;;;;;;3.53;0.83;;;;;;;;;;5075657;28;20532;-61
2023/12/25 00:55:05;;;;;;;3.27;0.80;;;;;;;;;;5075350;28;20489;-62
2023/12/25 00:57:32;;;;;;;1.43;0.80;;;;;;;;;;5075970;28;20443;-62
2023/12/25 00:59:59;;;;;;;2.77;1.10;;;;;;;;;;5075724;28;20448;-61
2023/12/25 01:02:26;;;;;;;2.90;0.90;;;;;;;;;;5075614;28;20447;-62
2023/12/25 01:04:53;;;;;;;3.53;1.00;;;;;;;;;;5075493;28;20530;-62
2023/12/25 01:07:20;;;;;;;3.43;1.10;;;;;;;;;;5075415;28;20879;-61
2023/12/25 01:09:48;;;;;;;4.70;1.07;;;;;;;;;;5075166;28;20481;-62
2023/12/25 01:12:15;;;;;;;1.30;1.00;;;;;;;;;;5075476;28;20447;-61
2023/12/25 01:14:44;;;;;;;1.93;0.90;;;;;;;;;;5075386;28;20531;-61
2023/12/25 01:17:11;;;;;;;2.47;0.60;;;;;;;;;;5075354;28;21128;-62
2023/12/25 01:19:37;;;;;;;1.10;0.80;;;;;;;;;;5075273;28;20784;-61
2023/12/25 01:22:05;;;;;;;1.80;1.00;;;;;;;;;;5075055;28;20539;-62
2023/12/25 01:24:32;;;;;;;2.20;1.10;;;;;;;;;;5073766;28;20927;-62
2023/12/25 01:27:00;;;;;;;1.00;0.90;;;;;;;;;;5075221;28;20535;-61
2023/12/25 01:29:27;;;;;;;2.10;1.00;;;;;;;;;;5075539;28;20479;-63
2023/12/25 01:31:54;;;;;;;3.80;1.20;;;;;;;;;;5075035;28;20529;-61
2023/12/25 01:34:21;;;;;;;1.43;1.10;;;;;;;;;;5074950;28;20538;-62
2023/12/25 01:36:47;;;;;;;2.17;1.20;;;;;;;;;;5074816;28;20447;-62
2023/12/25 01:39:14;;;;;;;2.23;0.90;;;;;;;;;;5074940;28;20454;-61
2023/12/25 01:41:40;;;;;;;1.00;0.80;;;;;;;;;;5074899;28;20450;-61
2023/12/25 01:44:09;;;;;;;1.17;0.90;;;;;;;;;;5074859;28;20451;-62
2023/12/25 01:46:36;;;;;;;2.90;1.07;;;;;;;;;;5074763;28;20939;-62
2023/12/25 01:49:03;;;;;;;2.87;1.00;;;;;;;;;;5074491;28;20477;-61
2023/12/25 01:51:30;;;;;;;2.03;0.93;;;;;;;;;;5074733;28;20446;-62
2023/12/25 01:53:57;;;;;;;3.00;1.00;;;;;;;;;;5074718;28;20444;-61
2023/12/25 01:56:24;;;;;;;2.33;0.80;;;;;;;;;;5074521;28;20559;-62
2023/12/25 01:58:51;;;;;;;2.20;0.70;;;;;;;;;;5074489;28;20536;-61
2023/12/25 02:01:19;;;;;;;1.57;0.73;;;;;;;;;;5074423;28;20451;-61
2023/12/25 02:03:47;;;;;;;1.60;0.70;;;;;;;;;;5074273;28;20542;-62
2023/12/25 02:06:14;;;;;;;1.83;0.70;;;;;;;;;;5074522;28;20447;-62
2023/12/25 02:08:41;;;;;;;1.47;0.70;;;;;;;;;;5074368;28;20530;-61
2023/12/25 02:11:08;;;;;;;2.50;0.93;;;;;;;;;;5074271;28;20881;-62
2023/12/25 02:13:35;;;;;;;4.63;0.93;;;;;;;;;;5074180;28;20539;-62
2023/12/25 02:16:02;;;;;;;3.33;0.90;;;;;;;;;;5073998;28;20487;-61
2023/12/25 02:18:31;;;;;;;1.20;1.10;;;;;;;;;;5073953;28;20535;-62
2023/12/25 02:20:58;;;;;;;2.00;1.47;;;;;;;;;;5074169;28;20540;-61
2023/12/25 02:23:27;;;;;;;2.30;0.90;;;;;;;;;;5074104;28;20447;-62
2023/12/25 02:25:56;;;;;;;6.00;1.03;;;;;;;;;;5073975;28;20447;-62
2023/12/25 02:28:23;;;;;;;5.00;1.20;;;;;;;;;;5073844;28;20445;-62
2023/12/25 02:30:51;;;;;;;8.73;1.30;;;;;;;;;;5073683;28;20475;-62
2023/12/25 02:33:18;;;;;;;1.47;1.37;;;;;;;;;;5073707;28;20922;-61
2023/12/25 02:35:45;;;;;;;7.33;1.43;;;;;;;;;;5073478;28;20541;-61
2023/12/25 02:38:12;;;;;;;1.60;1.10;;;;;;;;;;5073701;28;20905;-63
2023/12/25 02:40:39;;;;;;;2.90;1.40;;;;;;;;;;5073673;28;20447;-62
2023/12/25 02:43:08;;;;;;;3.40;1.23;;;;;;;;;;5073559;28;20455;-61
2023/12/25 02:45:35;;;;;;;2.83;1.47;;;;;;;;;;5073410;28;20482;-61
2023/12/25 02:48:02;;;;;;;1.77;1.17;;;;;;;;;;5073663;28;20439;-61
2023/12/25 02:50:29;;;;;;;3.60;1.10;;;;;;;;;;5073438;28;20839;-61
2023/12/25 02:52:56;;;;;;;2.50;1.10;;;;;;;;;;5073739;28;20483;-62
2023/12/25 02:55:23;;;;;;;2.70;1.00;;;;;;;;;;5073236;28;20861;-61
2023/12/25 02:57:50;;;;;;;4.00;1.20;;;;;;;;;;5073352;28;20512;-61
2023/12/25 03:00:19;;;;;;;1.47;1.20;;;;;;;;;;5073306;28;20458;-62
2023/12/25 03:02:46;;;;;;;2.80;1.03;;;;;;;;;;5073414;28;20530;-62
2023/12/25 03:05:12;;;;;;;3.00;1.00;;;;;;;;;;5073446;28;20477;-61
2023/12/25 03:07:39;;;;;;;2.07;1.10;;;;;;;;;;5073297;28;20506;-61
2023/12/25 03:10:07;;;;;;;7.27;1.20;;;;;;;;;;5073125;28;20485;-61
2023/12/25 03:12:34;;;;;;;1.13;1.03;;;;;;;;;;5073138;28;20810;-61
2023/12/25 03:15:01;;;;;;;1.47;0.90;;;;;;;;;;5073361;28;20443;-62
2023/12/25 03:17:29;;;;;;;3.63;1.10;;;;;;;;;;5073165;28;20476;-61
2023/12/25 03:19:56;;;;;;;3.23;1.10;;;;;;;;;;5073146;28;20447;-62
2023/12/25 03:22:23;;;;;;;1.30;1.10;;;;;;;;;;5073051;28;20538;-61
2023/12/25 03:24:50;;;;;;;2.50;1.30;;;;;;;;;;5072972;28;20530;-61
2023/12/25 03:27:17;;;;;;;2.50;1.13;;;;;;;;;;5072887;28;20504;-62
2023/12/25 03:29:43;;;;;;;2.17;1.20;;;;;;;;;;5072789;28;20471;-62
2023/12/25 03:32:11;;;;;;;3.57;1.37;;;;;;;;;;5073070;28;20447;-61
2023/12/25 03:34:47;;;;;;;2.90;1.43;;;;;;;;;;5072938;28;20444;-62
2023/12/25 03:37:14;;;;;;;3.90;1.03;;;;;;;;;;5072885;28;20505;-61
2023/12/25 03:39:41;;;;;;;4.93;1.30;;;;;;;;;;5072721;28;20451;-62
2023/12/25 03:42:08;;;;;;;1.10;0.90;;;;;;;;;;5072963;28;20871;-62
2023/12/25 03:44:35;;;;;;;1.73;1.33;;;;;;;;;;5073133;28;20444;-61
2023/12/25 03:47:02;;;;;;;1.63;1.03;;;;;;;;;;5073642;28;20534;-62
2023/12/25 03:49:29;;;;;;;0.80;0.80;;;;;;;;;;5076875;28;20456;-62
2023/12/25 03:51:57;;;;;;;1.87;0.90;;;;;;;;;;5076904;28;20534;-61
2023/12/25 03:54:24;;;;;;;1.47;0.90;;;;;;;;;;5076505;28;20578;-62
2023/12/25 03:56:51;;;;;;;6.23;1.17;;;;;;;;;;5076789;28;20960;-61
2023/12/25 03:59:18;;;;;;;1.90;0.90;;;;;;;;;;5076630;28;20443;-61
2023/12/25 04:01:45;;;;;;;6.20;1.00;;;;;;;;;;5076698;28;20534;-62
2023/12/25 04:04:12;;;;;;;2.47;0.97;;;;;;;;;;5076663;28;20443;-61
2023/12/25 04:06:39;;;;;;;2.07;0.90;;;;;;;;;;5076534;28;21012;-62
2023/12/25 04:09:07;;;;;;;2.73;1.03;;;;;;;;;;5076443;28;20530;-62
2023/12/25 04:11:34;;;;;;;4.80;1.27;;;;;;;;;;5076675;28;20489;-61
2023/12/25 04:14:01;;;;;;;2.40;1.00;;;;;;;;;;5076543;28;20497;-61
2023/12/25 04:16:28;;;;;;;3.53;1.07;;;;;;;;;;5076437;28;20453;-62
2023/12/25 04:18:56;;;;;;;2.20;1.30;;;;;;;;;;5076345;28;20443;-61
2023/12/25 04:21:23;;;;;;;1.97;1.47;;;;;;;;;;5076245;28;20451;-62
2023/12/25 04:23:51;;;;;;;3.60;1.00;;;;;;;;;;5076481;28;20535;-61
2023/12/25 04:26:19;;;;;;;1.57;1.00;;;;;;;;;;5076329;28;20542;-61
2023/12/25 04:28:46;;;;;;;1.57;1.40;;;;;;;;;;5076231;28;20512;-62
2023/12/25 04:31:13;;;;;;;3.00;1.20;;;;;;;;;;5076091;28;20489;-61
2023/12/25 04:33:40;;;;;;;1.67;1.10;;;;;;;;;;5076081;28;20450;-61
2023/12/25 04:36:07;;;;;;;6.57;1.70;;;;;;;;;;5076185;28;20447;-62
2023/12/25 04:38:35;;;;;;;2.03;1.00;;;;;;;;;;5076127;28;20443;-61
2023/12/25 04:41:02;;;;;;;3.37;1.03;;;;;;;;;;5076048;28;20447;-61
2023/12/25 04:43:30;;;;;;;1.73;1.17;;;;;;;;;;5075822;28;20447;-62
2023/12/25 04:45:57;;;;;;;3.20;1.20;;;;;;;;;;5075955;28;20534;-62
2023/12/25 04:48:24;;;;;;;5.90;1.10;;;;;;;;;;5075673;28;20934;-62
2023/12/25 04:50:51;;;;;;;1.57;1.20;;;;;;;;;;5075929;28;20487;-59
2023/12/25 04:53:18;;;;;;;1.97;1.00;;;;;;;;;;5075805;28;21010;-59
2023/12/25 04:55:45;;;;;;;3.60;1.00;;;;;;;;;;5075630;28;20471;-59
2023/12/25 04:58:11;;;;;;;1.60;1.20;;;;;;;;;;5075192;28;20959;-59
2023/12/25 05:00:40;;;;;;;2.80;1.00;;;;;;;;;;5075512;28;20471;-59
2023/12/25 05:03:07;;;;;;;2.67;1.03;;;;;;;;;;5075343;28;20855;-59
2023/12/25 05:05:34;;;;;;;2.50;1.10;;;;;;;;;;5075552;28;20439;-59
2023/12/25 05:08:01;;;;;;;1.93;0.83;;;;;;;;;;5075295;28;20477;-59
2023/12/25 05:10:27;;;;;;;2.40;1.00;;;;;;;;;;5075373;28;20847;-59
2023/12/25 05:12:54;;;;;;;2.10;1.10;;;;;;;;;;5075306;28;20447;-59
2023/12/25 05:15:21;;;;;;;2.20;1.00;;;;;;;;;;5075165;28;20810;-60
2023/12/25 05:17:49;;;;;;;1.73;0.73;;;;;;;;;;5075329;28;20534;-59
2023/12/25 05:20:17;;;;;;;2.10;1.10;;;;;;;;;;5075297;28;20537;-59
2023/12/25 05:22:44;;;;;;;4.20;1.67;;;;;;;;;;5075146;28;20526;-59
2023/12/25 05:25:10;;;;;;;1.70;1.00;;;;;;;;;;5075242;28;20450;-59
2023/12/25 05:27:37;;;;;;;1.40;1.07;;;;;;;;;;5075089;28;20531;-59
2023/12/25 05:30:06;;;;;;;5.37;1.23;;;;;;;;;;5074790;28;20941;-59
2023/12/25 05:32:35;;;;;;;2.40;1.33;;;;;;;;;;5075069;28;20533;-59
2023/12/25 05:35:04;;;;;;;1.20;0.80;;;;;;;;;;5075187;28;20530;-59
2023/12/25 05:37:31;;;;;;;1.20;1.10;;;;;;;;;;5074945;28;20938;-59
2023/12/25 05:39:58;;;;;;;2.30;1.00;;;;;;;;;;5074787;28;20530;-59
2023/12/25 05:42:25;;;;;;;3.03;1.10;;;;;;;;;;5074800;28;20446;-59
2023/12/25 05:44:52;;;;;;;1.20;1.10;;;;;;;;;;5074595;28;20534;-59
2023/12/25 05:47:19;;;;;;;3.80;1.37;;;;;;;;;;5074599;28;20447;-59
2023/12/25 05:49:45;;;;;;;2.13;1.10;;;;;;;;;;5074617;28;20450;-59
2023/12/25 05:52:14;;;;;;;0.80;0.80;;;;;;;;;;5074532;28;20815;-59
2023/12/25 05:54:42;;;;;;;2.13;1.10;;;;;;;;;;5074276;28;20482;-59
2023/12/25 05:57:09;;;;;;;1.40;1.00;;;;;;;;;;5074246;28;20477;-59
2023/12/25 05:59:37;;;;;;;2.87;1.40;;;;;;;;;;5074594;28;20638;-59
2023/12/25 06:02:04;;;;;;;1.37;1.27;;;;;;;;;;5074473;28;20447;-59
2023/12/25 06:04:31;;;;;;;2.03;1.40;;;;;;;;;;5074359;28;20444;-60
2023/12/25 06:06:58;;;;;;;1.97;1.10;;;;;;;;;;5074252;28;20447;-59
2023/12/25 06:09:26;;;;;;;1.80;0.90;;;;;;;;;;5073626;28;20444;-60
2023/12/25 06:11:53;;;;;;;2.40;1.27;;;;;;;;;;5073856;28;20570;-59
2023/12/25 06:14:20;;;;;;;1.73;1.23;;;;;;;;;;5074442;28;20443;-60
2023/12/25 06:16:47;;;;;;;1.17;1.00;;;;;;;;;;5074164;28;20501;-59
2023/12/25 06:19:14;;;;;;;2.70;1.30;;;;;;;;;;5074064;28;20439;-60
2023/12/25 06:21:41;;;;;;;5.17;1.23;;;;;;;;;;5074001;28;20496;-59
2023/12/25 06:24:08;;;;;;;2.97;1.10;;;;;;;;;;5073869;28;20917;-61
2023/12/25 06:26:37;;;;;;;3.10;1.10;;;;;;;;;;5074042;28;20440;-60
2023/12/25 06:29:04;;;;;;;2.27;1.00;;;;;;;;;;5074082;28;20443;-60
2023/12/25 06:31:31;;;;;;;2.70;1.30;;;;;;;;;;5073845;28;20483;-60
2023/12/25 06:33:58;;;;;;;1.90;0.93;;;;;;;;;;5073760;28;20447;-60
2023/12/25 06:36:25;;;;;;;2.90;1.40;;;;;;;;;;5073727;28;20443;-60
2023/12/25 06:38:52;;;;;;;1.20;0.90;;;;;;;;;;5073570;28;20530;-60
2023/12/25 06:41:19;;;;;;;1.70;1.20;;;;;;;;;;5073996;28;20443;-60
2023/12/25 06:43:47;;;;;;;4.10;1.07;;;;;;;;;;5073725;28;20534;-60
2023/12/25 06:46:14;;;;;;;2.50;1.33;;;;;;;;;;5073868;28;20530;-60
2023/12/25 06:48:41;;;;;;;4.93;1.00;;;;;;;;;;5073537;28;20440;-60
2023/12/25 06:51:08;;;;;;;4.20;1.13;;;;;;;;;;5073383;28;20471;-60
2023/12/25 06:53:35;;;;;;;2.70;1.10;;;;;;;;;;5073226;28;20447;-60
2023/12/25 06:56:02;;;;;;;1.57;0.93;;;;;;;;;;5073132;28;20554;-60
2023/12/25 06:58:29;;;;;;;4.20;1.17;;;;;;;;;;5073428;28;20443;-60
2023/12/25 07:00:59;;;;;;;1.90;1.20;;;;;;;;;;5073344;28;20447;-60
2023/12/25 07:03:26;;;;;;;2.07;1.07;;;;;;;;;;5073253;28;20538;-60
2023/12/25 07:05:53;;;;;;;1.30;1.20;;;;;;;;;;5073103;28;20443;-60
2023/12/25 07:08:20;;;;;;;3.90;1.20;;;;;;;;;;5073342;28;20447;-60
2023/12/25 07:10:47;;;;;;;2.53;1.30;;;;;;;;;;5073251;28;21005;-60
2023/12/25 07:13:15;;;;;;;3.00;1.10;;;;;;;;;;5073168;28;20443;-60
2023/12/25 07:15:42;;;;;;;3.57;1.10;;;;;;;;;;5073176;28;20443;-60
2023/12/25 07:18:10;;;;;;;3.03;1.10;;;;;;;;;;5073193;28;21041;-60
2023/12/25 07:20:37;;;;;;;1.97;1.00;;;;;;;;;;5072973;28;20531;-61
2023/12/25 07:23:04;;;;;;;1.10;0.90;;;;;;;;;;5073157;28;20439;-60
2023/12/25 07:25:31;;;;;;;5.30;1.10;;;;;;;;;;5073086;28;20439;-60
2023/12/25 07:27:58;;;;;;;2.90;1.10;;;;;;;;;;5073024;28;20998;-60
2023/12/25 07:30:25;;;;;;;3.57;1.97;;;;;;;;;;5072921;28;20534;-60
2023/12/25 07:32:52;;;;;;;2.67;1.40;;;;;;;;;;5072739;28;20532;-60
2023/12/25 07:35:21;;;;;;;1.77;1.07;;;;;;;;;;5072761;28;20449;-60
2023/12/25 07:37:48;;;;;;;2.80;1.53;;;;;;;;;;5072958;28;20447;-60
2023/12/25 07:40:14;;;;;;;4.40;1.40;;;;;;;;;;5072961;28;20810;-60
2023/12/25 07:42:41;;;;;;;3.73;1.63;;;;;;;;;;5072820;28;20467;-60
2023/12/25 07:45:09;;;;;;;2.10;1.10;;;;;;;;;;5072923;28;21030;-60
2023/12/25 07:47:36;;;;;;;4.20;1.13;;;;;;;;;;5072724;28;20896;-60
2023/12/25 07:50:04;;;;;;;1.93;1.13;;;;;;;;;;5072645;28;20990;-60
2023/12/25 07:52:33;;;;;;;2.50;1.00;;;;;;;;;;5072800;28;20990;-60
2023/12/25 07:55:00;;;;;;;3.53;1.67;;;;;;;;;;5072562;28;20467;-60
2023/12/25 07:57:26;;;;;;;4.33;1.40;;;;;;;;;;5072684;28;20892;-60
2023/12/25 07:59:53;;;;;;;4.13;1.30;;;;;;;;;;5072631;28;20534;-60
2023/12/25 08:02:21;;;;;;;5.03;1.30;;;;;;;;;;5072408;28;20538;-60
2023/12/25 08:04:48;;;;;;;2.63;1.07;;;;;;;;;;5072805;28;20443;-60
2023/12/25 08:07:14;;;;;;;5.90;1.13;;;;;;;;;;5072895;28;20536;-60
2023/12/25 08:09:43;;;;;;;5.07;2.43;;;;;;;;;;5072525;28;20876;-60
2023/12/25 08:12:10;;;;;;;5.13;1.30;;;;;;;;;;5072399;28;20569;-60
2023/12/25 08:14:37;;;;;;;4.53;2.10;;;;;;;;;;5072448;28;20449;-60
2023/12/25 08:17:04;;;;;;;17.83;8.87;;;;;;;;;;5072321;28;20475;-60
2023/12/25 08:19:30;;;;;;;9.27;2.93;;;;;;;;;;5072821;28;20534;-60
2023/12/25 08:21:57;;;;;;;1.30;1.17;;;;;;;;;;5072425;28;20444;-61
2023/12/25 08:24:25;;;;;;;1.40;1.00;;;;;;;;;;5072388;28;20479;-60
2023/12/25 08:26:53;;;;;;;5.47;1.67;;;;;;;;;;5072807;28;20452;-60
2023/12/25 08:29:21;;;;;;;5.17;1.37;;;;;;;;;;5072303;28;20450;-60
2023/12/25 08:31:48;;;;;;;3.57;1.60;;;;;;;;;;5072411;28;20483;-60
2023/12/25 08:34:14;;;;;;;2.33;1.13;;;;;;;;;;5075267;28;20539;-60
2023/12/25 08:36:41;;;;;;;1.30;0.90;;;;;;;;;;5076020;28;20443;-60
2023/12/25 08:39:08;;;;;;;3.10;1.10;;;;;;;;;;5075964;28;20526;-60
2023/12/25 08:41:35;;;;;;;1.20;1.10;;;;;;;;;;5075816;28;21006;-60
2023/12/25 08:44:04;;;;;;;4.30;1.47;;;;;;;;;;5075768;28;20529;-60
2023/12/25 08:46:31;;;;;;;5.03;1.20;;;;;;;;;;5076007;28;20494;-60
2023/12/25 08:48:59;;;;;;;2.20;1.30;;;;;;;;;;5075893;28;20488;-60
2023/12/25 08:51:26;;;;;;;2.97;1.00;;;;;;;;;;5075553;28;21057;-60
2023/12/25 08:53:53;;;;;;;2.30;0.80;;;;;;;;;;5075722;28;20444;-60
2023/12/25 08:56:24;;;;;;;2.37;1.10;;;;;;;;;;5075310;28;20479;-60
2023/12/25 08:58:51;;;;;;;4.13;1.00;;;;;;;;;;5075771;28;20443;-60
2023/12/25 09:01:19;;;;;;;1.50;1.30;;;;;;;;;;5075696;28;20455;-60
2023/12/25 09:03:47;;;;;;;2.13;1.30;;;;;;;;;;5075525;28;20526;-60
2023/12/25 09:06:14;;;;;;;3.47;0.90;;;;;;;;;;5075461;28;20538;-60
2023/12/25 09:08:41;;;;;;;4.23;1.77;;;;;;;;;;5075344;28;20881;-60
2023/12/25 09:11:08;;;;;;;1.93;1.10;;;;;;;;;;5075182;28;20482;-60
2023/12/25 09:13:35;;;;;;;2.30;2.10;;;;;;;;;;5075508;28;20479;-60
2023/12/25 09:16:02;;;;;;;5.00;1.40;;;;;;;;;;5075387;28;20450;-60
2023/12/25 09:18:30;;;;;;;2.20;1.20;;;;;;;;;;5075281;28;20538;-60
2023/12/25 09:20:57;;;;;;;5.10;1.20;;;;;;;;;;5075502;28;20449;-60
2023/12/25 09:23:24;;;;;;;3.20;1.00;;;;;;;;;;5075113;28;20481;-60
2023/12/25 09:25:51;;;;;;;3.03;1.80;;;;;;;;;;5075258;28;20872;-60
2023/12/25 09:28:18;;;;;;;4.23;1.30;;;;;;;;;;5075106;28;20876;-60
2023/12/25 09:30:45;;;;;;;5.97;1.40;;;;;;;;;;5075081;28;20446;-61
2023/12/25 09:33:12;;;;;;;2.00;0.90;;;;;;;;;;5074950;28;20577;-60
2023/12/25 09:35:41;;;;;;;2.70;1.00;;;;;;;;;;5074942;28;20444;-60
2023/12/25 09:38:08;;;;;;;3.87;1.03;;;;;;;;;;5074715;28;20455;-60
2023/12/25 09:40:35;;;;;;;2.60;1.60;;;;;;;;;;5075001;28;20862;-60
2023/12/25 09:43:02;;;;;;;1.90;1.17;;;;;;;;;;5074895;28;21038;-60
2023/12/25 09:45:33;;;;;;;2.80;1.00;;;;;;;;;;5073479;28;20456;-60
2023/12/25 09:48:00;;;;;;;3.10;1.30;;;;;;;;;;5074909;28;20534;-60
2023/12/25 09:50:28;;;;;;;6.90;1.33;;;;;;;;;;5074324;28;20538;-61
2023/12/25 09:52:56;;;;;;;4.10;1.10;;;;;;;;;;5074592;28;20570;-60
2023/12/25 09:55:23;;;;;;;2.47;1.60;;;;;;;;;;5074409;28;20514;-60
2023/12/25 09:57:51;;;;;;;6.23;1.67;;;;;;;;;;5074466;28;20505;-60
2023/12/25 10:00:21;;;;;;;4.43;1.33;;;;;;;;;;5074284;28;20451;-60
2023/12/25 10:02:50;;;;;;;3.80;1.43;;;;;;;;;;5074334;28;20530;-60
2023/12/25 10:05:18;;;;;;;3.47;1.40;;;;;;;;;;5074229;28;20508;-60
2023/12/25 10:07:45;;;;;;;2.30;1.30;;;;;;;;;;5074463;28;20853;-60
2023/12/25 10:10:14;;;;;;;2.07;1.30;;;;;;;;;;5074364;28;20850;-60
2023/12/25 10:12:44;;;;;;;3.33;1.13;;;;;;;;;;5074139;28;20487;-60
2023/12/25 10:15:11;;;;;;;2.07;1.07;;;;;;;;;;5074031;28;20448;-60
2023/12/25 10:17:38;;;;;;;2.70;1.30;;;;;;;;;;5074014;28;20476;-60
2023/12/25 10:20:07;;;;;;;3.10;0.90;;;;;;;;;;5073934;28;20935;-60
2023/12/25 10:22:37;;;;;;;2.90;1.30;;;;;;;;;;5074139;28;20447;-60
2023/12/25 10:25:09;;;;;;;6.00;1.80;;;;;;;;;;5074071;28;20444;-60
2023/12/25 10:27:38;;;;;;;2.43;1.27;;;;;;;;;;5073838;28;20491;-60
2023/12/25 10:30:05;;;;;;;2.90;1.17;;;;;;;;;;5073773;28;20535;-60
2023/12/25 10:32:32;;;;;;;2.83;1.20;;;;;;;;;;5074117;28;20514;-60
2023/12/25 10:35:13;;;;;;;4.80;1.43;;;;;;;;;;5073970;28;20997;-60
2023/12/25 10:37:41;;;;;;;2.77;1.13;;;;;;;;;;5073656;28;20942;-60
2023/12/25 10:40:21;;;;;;;5.03;1.40;;;;;;;;;;5073769;28;20530;-60
2023/12/25 10:42:50;;;;;;;2.67;1.23;;;;;;;;;;5073648;28;20446;-60
2023/12/25 10:45:21;;;;;;;1.63;1.20;;;;;;;;;;5073758;28;20463;-60
2023/12/25 10:47:50;;;;;;;2.90;1.37;;;;;;;;;;5073525;28;20492;-60
2023/12/25 10:50:18;;;;;;;7.20;1.60;;;;;;;;;;5073405;28;20846;-60
2023/12/25 10:52:47;;;;;;;4.40;1.30;;;;;;;;;;5073538;28;20885;-60
2023/12/25 10:55:15;;;;;;;1.57;1.20;;;;;;;;;;5073058;28;20481;-60
2023/12/25 10:57:42;;;;;;;2.57;1.20;;;;;;;;;;5073160;28;20444;-60
2023/12/25 11:00:12;;;;;;;3.30;1.60;;;;;;;;;;5073370;28;20533;-60
2023/12/25 11:02:40;;;;;;;3.30;1.73;;;;;;;;;;5073262;28;20444;-60
2023/12/25 11:05:08;;;;;;;5.10;1.40;;;;;;;;;;5073280;28;20455;-60
2023/12/25 11:07:35;;;;;;;4.50;2.00;;;;;;;;;;5073188;28;20443;-60
2023/12/25 11:10:03;;;;;;;2.57;1.60;;;;;;;;;;5073453;28;20439;-60
2023/12/25 11:12:30;;;;;;;2.57;1.30;;;;;;;;;;5073010;28;21001;-60
2023/12/25 11:14:57;;;;;;;1.70;1.03;;;;;;;;;;5073140;28;20493;-60
2023/12/25 11:17:27;;;;;;;4.47;1.60;;;;;;;;;;5073126;28;20803;-60
2023/12/25 11:19:54;;;;;;;1.70;1.33;;;;;;;;;;5073038;28;20448;-60
2023/12/25 11:22:30;;;;;;;3.93;1.40;;;;;;;;;;5073027;28;20447;-60
2023/12/25 11:24:57;;;;;;;3.20;1.30;;;;;;;;;;5073215;28;20542;-60
2023/12/25 11:27:27;;;;;;;2.03;1.00;;;;;;;;;;5073307;28;20442;-61
2023/12/25 11:30:00;;;;;;;1.93;1.20;;;;;;;;;;5073022;28;20919;-60
2023/12/25 11:32:30;;;;;;;7.67;1.30;;;;;;;;;;5072801;28;20581;-61
2023/12/25 11:34:58;;;;;;;4.23;1.30;;;;;;;;;;5072813;28;20852;-60
2023/12/25 11:37:25;;;;;;;2.63;1.13;;;;;;;;;;5073115;28;20496;-60
2023/12/25 11:39:58;;;;;;;2.87;1.30;;;;;;;;;;5072876;28;20494;-61
2023/12/25 11:42:25;;;;;;;2.30;1.37;;;;;;;;;;5072852;28;20861;-60
2023/12/25 11:44:56;;;;;;;3.97;1.63;;;;;;;;;;5072696;28;20458;-60
2023/12/25 11:47:40;;;;;;;3.37;1.10;;;;;;;;;;5072574;28;20926;-60
2023/12/25 11:50:07;;;;;;;2.93;1.47;;;;;;;;;;5072960;28;20961;-60
2023/12/25 11:52:47;;;;;;;1.70;1.07;;;;;;;;;;5072689;28;20826;-60
2023/12/25 11:55:15;;;;;;;1.80;1.10;;;;;;;;;;5072440;28;20479;-60
2023/12/25 11:57:43;;;;;;;5.73;1.33;;;;;;;;;;5072479;28;20535;-60
2023/12/25 12:00:16;;;;;;;4.67;1.70;;;;;;;;;;5072525;28;20451;-60
2023/12/25 12:02:44;;;;;;;4.67;1.90;;;;;;;;;;5072586;28;20447;-60
2023/12/25 12:05:11;;;;;;;3.67;1.77;;;;;;;;;;5072518;28;20443;-60
2023/12/25 12:07:38;;;;;;;1.57;1.20;;;;;;;;;;5072665;28;20531;-60
2023/12/25 12:10:05;;;;;;;2.33;1.73;;;;;;;;;;5076544;28;20445;-60
2023/12/25 12:12:32;;;;;;;5.17;1.70;;;;;;;;;;5076697;28;20553;-60
2023/12/25 12:15:00;;;;;;;3.50;1.27;;;;;;;;;;5076363;28;20447;-60
2023/12/25 12:17:27;;;;;;;2.80;1.37;;;;;;;;;;5076343;28;20466;-61
2023/12/25 12:19:55;;;;;;;2.97;1.63;;;;;;;;;;5076294;28;20490;-60
2023/12/25 12:22:23;;;;;;;3.80;1.57;;;;;;;;;;5076287;28;20538;-60
2023/12/25 12:24:50;;;;;;;5.67;1.57;;;;;;;;;;5076094;28;20953;-60
2023/12/25 12:27:19;;;;;;;4.83;1.27;;;;;;;;;;5076316;28;20857;-60
2023/12/25 12:29:48;;;;;;;3.60;2.00;;;;;;;;;;5076304;28;20474;-60
2023/12/25 12:32:15;;;;;;;3.60;2.20;;;;;;;;;;5075903;28;21009;-60
2023/12/25 12:34:42;;;;;;;4.10;1.47;;;;;;;;;;5075955;28;20453;-60
2023/12/25 12:37:10;;;;;;;2.23;1.30;;;;;;;;;;5075770;28;20443;-60
2023/12/25 12:39:38;;;;;;;2.80;1.47;;;;;;;;;;5076027;28;20479;-60
2023/12/25 12:42:09;;;;;;;6.47;2.27;;;;;;;;;;5075884;28;20526;-60
2023/12/25 12:44:36;;;;;;;3.20;1.40;;;;;;;;;;5075931;28;20819;-61
2023/12/25 12:47:03;;;;;;;4.07;1.53;;;;;;;;;;5075709;28;20515;-60
2023/12/25 12:49:32;;;;;;;5.03;1.70;;;;;;;;;;5075672;28;20443;-60
2023/12/25 12:51:59;;;;;;;4.00;1.50;;;;;;;;;;5075848;28;20443;-60
2023/12/25 12:54:27;;;;;;;2.40;1.47;;;;;;;;;;5075535;28;20620;-60
2023/12/25 12:56:54;;;;;;;4.17;1.67;;;;;;;;;;5075822;28;20494;-60
2023/12/25 12:59:21;;;;;;;3.07;1.40;;;;;;;;;;5075736;28;20477;-60
2023/12/25 13:01:48;;;;;;;5.03;2.00;;;;;;;;;;5075493;28;20581;-60
2023/12/25 13:04:17;;;;;;;1.67;1.30;;;;;;;;;;5075464;28;20447;-60
2023/12/25 13:06:44;;;;;;;7.37;1.90;;;;;;;;;;5075614;28;20481;-60
2023/12/25 13:09:11;;;;;;;3.73;1.53;;;;;;;;;;5075538;28;21000;-60
2023/12/25 13:11:39;;;;;;;2.73;1.30;;;;;;;;;;5075409;28;20490;-61
2023/12/25 13:14:06;;;;;;;3.30;1.60;;;;;;;;;;5075266;28;20738;-60
2023/12/25 13:16:33;;;;;;;3.73;1.70;;;;;;;;;;5075281;28;20443;-60
2023/12/25 13:19:00;;;;;;;2.90;1.40;;;;;;;;;;5074918;28;20469;-61
2023/12/25 13:21:27;;;;;;;2.73;1.27;;;;;;;;;;5075421;28;20879;-60
2023/12/25 13:23:54;;;;;;;3.47;1.87;;;;;;;;;;5075195;28;20447;-60
2023/12/25 13:26:21;;;;;;;3.43;1.30;;;;;;;;;;5075107;28;20457;-61
2023/12/25 13:28:49;;;;;;;3.27;1.30;;;;;;;;;;5075063;28;20443;-60
2023/12/25 13:31:16;;;;;;;2.57;1.20;;;;;;;;;;5074935;28;20577;-61
2023/12/25 13:33:45;;;;;;;2.50;1.50;;;;;;;;;;5075184;28;20491;-61
2023/12/25 13:36:13;;;;;;;3.37;1.43;;;;;;;;;;5075024;28;20525;-61
2023/12/25 13:38:40;;;;;;;3.50;1.40;;;;;;;;;;5074747;28;20447;-61
2023/12/25 13:41:08;;;;;;;5.87;1.27;;;;;;;;;;5074891;28;20443;-61
2023/12/25 13:43:35;;;;;;;4.50;1.50;;;;;;;;;;5074782;28;20475;-60
2023/12/25 13:46:03;;;;;;;6.50;2.60;;;;;;;;;;5074644;28;20494;-61
2023/12/25 13:48:31;;;;;;;1.93;1.30;;;;;;;;;;5074909;28;20448;-60
2023/12/25 13:50:58;;;;;;;2.70;1.50;;;;;;;;;;5074749;28;20448;-61
2023/12/25 13:53:25;;;;;;;3.80;1.23;;;;;;;;;;5074646;28;20831;-61
2023/12/25 13:55:53;;;;;;;3.20;1.33;;;;;;;;;;5074641;28;20471;-61
2023/12/25 13:58:20;;;;;;;1.77;1.20;;;;;;;;;;5074414;28;20447;-61
2023/12/25 14:00:47;;;;;;;3.80;1.70;;;;;;;;;;5074296;28;20440;-60
2023/12/25 14:03:15;;;;;;;1.90;1.30;;;;;;;;;;5074395;28;20451;-61
2023/12/25 14:05:43;;;;;;;2.80;1.23;;;;;;;;;;5074436;28;20879;-61
2023/12/25 14:08:10;;;;;;;2.03;1.10;;;;;;;;;;5074285;28;20444;-61
2023/12/25 14:10:37;;;;;;;1.97;1.40;;;;;;;;;;5074304;28;20448;-60
2023/12/25 14:13:07;;;;;;;4.07;1.77;;;;;;;;;;5074024;28;20471;-61
2023/12/25 14:15:34;;;;;;;4.83;1.77;;;;;;;;;;5074533;28;20448;-61
2023/12/25 14:18:01;;;;;;;4.30;1.37;;;;;;;;;;5074222;28;20543;-61
2023/12/25 14:20:29;;;;;;;3.43;1.30;;;;;;;;;;5074176;28;20447;-61
2023/12/25 14:22:56;;;;;;;7.60;1.43;;;;;;;;;;5074116;28;20443;-61
2023/12/25 14:25:23;;;;;;;3.43;1.53;;;;;;;;;;5074043;28;20543;-61
2023/12/25 14:27:50;;;;;;;4.10;1.70;;;;;;;;;;5073548;28;20517;-61
2023/12/25 14:30:16;;;;;;;1.60;1.40;;;;;;;;;;5073461;28;20538;-60
2023/12/25 14:32:45;;;;;;;3.70;1.90;;;;;;;;;;5073553;28;21026;-61
2023/12/25 14:35:12;;;;;;;3.73;1.60;;;;;;;;;;5073965;28;20484;-61
2023/12/25 14:37:40;;;;;;;4.87;2.10;;;;;;;;;;5073731;28;20546;-60
2023/12/25 14:40:07;;;;;;;1.50;1.30;;;;;;;;;;5073489;28;21012;-61
2023/12/25 14:42:34;;;;;;;4.57;1.77;;;;;;;;;;5073828;28;20854;-61
2023/12/25 14:45:01;;;;;;;2.57;1.40;;;;;;;;;;5073713;28;20448;-61